Time;durP1;ratioP1;P1;durP2;ratioP2;P2;SDS_P1;SDS_P2;PMS_P1;PMS_P2;Temp;Humidity;BMP_temperature;BMP_pressure;BME280_temperature;BME280_humidity;BME280_pressure;Samples;Min_cycle;Max_cycle;Signal;HPM_P1;HPM_P2
2021/03/13 00:00:26;;;;;;;9.40;2.28;;;8.00;63.00;;;;;;5004239;28;20065;-65
2021/03/13 00:02:52;;;;;;;7.95;2.50;;;8.00;63.00;;;;;;4999241;28;20033;-66
2021/03/13 00:05:32;;;;;;;4.97;2.00;;;7.90;63.00;;;;;;5013903;28;20030;-65
2021/03/13 00:07:58;;;;;;;6.57;2.28;;;7.90;63.00;;;;;;5006652;28;20417;-65
2021/03/13 00:10:24;;;;;;;5.55;1.80;;;7.90;63.00;;;;;;5011443;28;20026;-65
2021/03/13 00:12:50;;;;;;;10.40;2.40;;;7.90;63.10;;;;;;5011232;28;20041;-65
2021/03/13 00:15:16;;;;;;;14.60;2.58;;;7.90;62.90;;;;;;5004148;28;20099;-65
2021/03/13 00:17:46;;;;;;;6.57;2.30;;;7.80;62.80;;;;;;5011647;28;20044;-66
2021/03/13 00:20:16;;;;;;;10.63;2.45;;;7.70;62.80;;;;;;5011860;28;20046;-65
2021/03/13 00:22:44;;;;;;;8.30;2.42;;;7.70;62.90;;;;;;5008740;28;20095;-66
2021/03/13 00:25:11;;;;;;;8.57;2.70;;;7.70;62.90;;;;;;5019788;28;20097;-65
2021/03/13 00:27:46;;;;;;;10.50;2.80;;;7.60;63.00;;;;;;5012560;28;20116;-65
2021/03/13 00:30:16;;;;;;;20.40;3.97;;;7.60;63.20;;;;;;5011752;28;20393;-66
2021/03/13 00:32:43;;;;;;;14.30;3.85;;;7.60;63.40;;;;;;5016611;28;20045;-66
2021/03/13 00:35:09;;;;;;;28.35;4.93;;;7.60;63.40;;;;;;5006660;28;20041;-65
2021/03/13 00:37:35;;;;;;;13.57;4.57;;;7.60;63.40;;;;;;5006138;28;20041;-65
2021/03/13 00:40:03;;;;;;;16.73;3.88;;;7.60;63.50;;;;;;5007490;28;20045;-65
2021/03/13 00:42:29;;;;;;;11.88;4.43;;;7.60;63.40;;;;;;5002701;28;20059;-65
2021/03/13 00:44:55;;;;;;;17.38;4.80;;;7.60;63.50;;;;;;5011861;28;20497;-65
2021/03/13 00:47:20;;;;;;;14.55;5.00;;;7.60;63.60;;;;;;5006124;28;20650;-66
2021/03/13 00:49:46;;;;;;;17.35;5.38;;;7.60;63.80;;;;;;5006343;28;20120;-65
2021/03/13 00:52:11;;;;;;;23.90;5.97;;;7.70;64.00;;;;;;5006335;28;20125;-65
2021/03/13 00:54:39;;;;;;;21.30;6.38;;;7.70;64.00;;;;;;5000241;28;20589;-65
2021/03/13 00:57:05;;;;;;;23.02;6.68;;;7.70;64.00;;;;;;5000519;28;20504;-65
2021/03/13 00:59:30;;;;;;;25.30;6.57;;;7.80;64.20;;;;;;4997788;28;20042;-65
2021/03/13 01:01:56;;;;;;;19.70;6.65;;;7.80;64.40;;;;;;4994469;28;20034;-65
2021/03/13 01:04:24;;;;;;;31.08;7.60;;;7.90;64.50;;;;;;4996046;28;20089;-65
2021/03/13 01:06:50;;;;;;;30.75;7.82;;;8.00;64.70;;;;;;4999504;28;20065;-65
2021/03/13 01:09:16;;;;;;;26.98;8.40;;;8.10;64.70;;;;;;4993451;28;20164;-65
2021/03/13 01:11:42;;;;;;;21.63;7.40;;;8.20;64.80;;;;;;4999449;28;20034;-65
2021/03/13 01:14:08;;;;;;;39.95;9.00;;;8.30;64.80;;;;;;4999401;28;20038;-65
2021/03/13 01:16:34;;;;;;;29.48;8.70;;;8.40;64.80;;;;;;5001624;28;20168;-66
2021/03/13 01:19:02;;;;;;;26.83;8.68;;;8.40;64.60;;;;;;4993970;28;20173;-65
2021/03/13 01:21:28;;;;;;;28.80;8.90;;;8.50;64.60;;;;;;4994606;28;20500;-65
2021/03/13 01:23:53;;;;;;;27.23;8.55;;;8.50;64.40;;;;;;4996593;28;20042;-65
2021/03/13 01:26:19;;;;;;;27.58;9.15;;;8.50;64.20;;;;;;4996757;28;20132;-65
2021/03/13 01:28:45;;;;;;;30.73;8.63;;;8.50;64.10;;;;;;4997115;28;20125;-65
2021/03/13 01:31:11;;;;;;;39.38;9.10;;;8.50;64.10;;;;;;4994037;28;20100;-66
2021/03/13 01:33:37;;;;;;;34.85;9.43;;;8.40;64.00;;;;;;4994467;28;20049;-66
2021/03/13 01:36:06;;;;;;;35.47;10.25;;;8.50;64.10;;;;;;5000328;28;20091;-65
2021/03/13 01:38:31;;;;;;;33.33;8.68;;;8.50;64.20;;;;;;4994066;28;20617;-65
2021/03/13 01:40:57;;;;;;;32.92;8.73;;;8.40;64.20;;;;;;4996792;28;20041;-66
2021/03/13 01:43:23;;;;;;;24.15;8.20;;;8.50;64.30;;;;;;4994664;28;20029;-65
2021/03/13 01:45:49;;;;;;;39.50;8.95;;;8.50;64.40;;;;;;4993522;28;24139;-65
2021/03/13 01:48:17;;;;;;;38.97;9.80;;;8.50;64.40;;;;;;4997944;28;20037;-65
2021/03/13 01:50:43;;;;;;;34.00;9.13;;;8.50;64.40;;;;;;5002768;28;20071;-65
2021/03/13 01:53:11;;;;;;;40.13;9.15;;;8.50;64.30;;;;;;4994802;28;20592;-65
2021/03/13 01:55:40;;;;;;;39.75;9.48;;;8.50;64.40;;;;;;4998577;28;20665;-65
2021/03/13 01:58:08;;;;;;;32.45;8.60;;;8.50;64.50;;;;;;4997312;28;20446;-65
2021/03/13 02:00:33;;;;;;;37.83;10.05;;;8.50;64.50;;;;;;4999404;28;20053;-65
2021/03/13 02:02:59;;;;;;;31.98;9.15;;;8.40;64.40;;;;;;4995885;28;20049;-65
2021/03/13 02:05:27;;;;;;;29.23;8.63;;;8.40;64.40;;;;;;4997946;28;20077;-65
2021/03/13 02:08:17;;;;;;;45.00;10.10;;;8.40;64.40;;;;;;5002779;28;21310;-65
2021/03/13 02:11:22;;;;;;;45.70;10.13;;;8.50;64.60;;;;;;4995201;28;20374;-65
2021/03/13 02:14:13;;;;;;;46.05;9.77;;;8.50;64.60;;;;;;4977703;28;20042;-65
2021/03/13 02:16:59;;;;;;;45.88;10.18;;;8.40;64.60;;;;;;4977924;28;20042;-65
2021/03/13 02:19:42;;;;;;;38.42;9.50;;;8.50;64.90;;;;;;4978306;28;20092;-65
2021/03/13 02:22:13;;;;;;;30.67;10.15;;;8.50;64.90;;;;;;4980843;28;20045;-65
2021/03/13 02:24:58;;;;;;;38.35;10.38;;;8.50;65.70;;;;;;4977838;28;20038;-65
2021/03/13 02:28:10;;;;;;;42.63;9.85;;;8.50;64.90;;;;;;4979222;28;20050;-65
2021/03/13 02:30:39;;;;;;;47.25;9.60;;;8.50;65.20;;;;;;4938662;28;20057;-65
2021/03/13 02:33:13;;;;;;;47.88;9.73;;;8.60;65.20;;;;;;4978597;28;20107;-65
2021/03/13 02:35:42;;;;;;;43.65;10.65;;;8.60;65.30;;;;;;4996485;28;20861;-65
2021/03/13 02:38:12;;;;;;;42.38;9.48;;;8.60;65.30;;;;;;5004519;28;20497;-65
2021/03/13 02:40:40;;;;;;;29.52;9.80;;;8.60;65.30;;;;;;4998795;28;20372;-65
2021/03/13 02:43:11;;;;;;;37.35;10.20;;;8.70;65.20;;;;;;5000583;28;20499;-65
2021/03/13 02:45:44;;;;;;;34.80;10.32;;;8.70;65.20;;;;;;4994835;28;20556;-65
2021/03/13 02:48:12;;;;;;;42.50;9.07;;;8.70;65.30;;;;;;4994285;28;20104;-65
2021/03/13 02:50:40;;;;;;;38.10;9.57;;;8.70;65.30;;;;;;4995056;28;20045;-65
2021/03/13 02:53:09;;;;;;;35.45;9.50;;;8.80;65.30;;;;;;4997293;28;20060;-65
2021/03/13 02:55:35;;;;;;;37.45;9.65;;;8.80;65.30;;;;;;5003853;28;20133;-65
2021/03/13 02:58:02;;;;;;;41.55;9.77;;;8.80;65.30;;;;;;4999467;28;20558;-65
2021/03/13 03:00:34;;;;;;;42.40;10.18;;;8.80;65.30;;;;;;4994484;28;20104;-65
2021/03/13 03:03:01;;;;;;;28.45;8.57;;;8.90;65.40;;;;;;4994406;28;20049;-65
2021/03/13 03:05:30;;;;;;;33.63;8.85;;;8.90;65.30;;;;;;5000725;28;20038;-64
2021/03/13 03:08:01;;;;;;;35.60;9.30;;;9.00;65.50;;;;;;5002015;28;20038;-64
2021/03/13 03:10:32;;;;;;;40.17;8.68;;;9.00;65.60;;;;;;4998799;28;20627;-65
2021/03/13 03:13:00;;;;;;;30.77;7.97;;;9.10;65.80;;;;;;4997136;28;20040;-65
2021/03/13 03:15:28;;;;;;;32.30;8.77;;;9.10;65.70;;;;;;4992442;28;20038;-65
2021/03/13 03:17:56;;;;;;;29.92;8.05;;;9.20;65.50;;;;;;5011940;28;20041;-65
2021/03/13 03:20:22;;;;;;;26.05;8.20;;;9.20;65.40;;;;;;4994163;28;20501;-65
2021/03/13 03:22:50;;;;;;;27.52;8.32;;;9.20;65.40;;;;;;4996095;28;20038;-65
2021/03/13 03:25:21;;;;;;;33.55;8.23;;;9.20;65.40;;;;;;4998611;28;20037;-65
2021/03/13 03:27:53;;;;;;;28.52;8.07;;;9.20;65.30;;;;;;5000107;28;20038;-65
2021/03/13 03:30:20;;;;;;;31.83;8.00;;;9.20;65.30;;;;;;5001422;28;20061;-65
2021/03/13 03:32:46;;;;;;;34.97;7.78;;;9.20;65.30;;;;;;4995306;28;20034;-66
2021/03/13 03:35:13;;;;;;;37.95;8.20;;;9.30;65.20;;;;;;5001677;28;20045;-65
2021/03/13 03:37:39;;;;;;;32.53;8.27;;;9.30;65.30;;;;;;4997953;28;20563;-65
2021/03/13 03:40:06;;;;;;;30.70;8.20;;;9.30;65.30;;;;;;4994045;28;20044;-65
2021/03/13 03:42:33;;;;;;;29.50;8.82;;;9.30;65.40;;;;;;4991875;28;20113;-65
2021/03/13 03:45:01;;;;;;;26.85;7.57;;;9.40;65.50;;;;;;5005131;28;20038;-65
2021/03/13 03:47:32;;;;;;;18.52;7.57;;;9.40;65.40;;;;;;4995825;28;20037;-65
2021/03/13 03:50:00;;;;;;;23.90;7.85;;;9.50;65.50;;;;;;4992275;28;20049;-66
2021/03/13 03:52:27;;;;;;;21.60;8.43;;;9.50;65.40;;;;;;4993447;28;20044;-65
2021/03/13 03:54:53;;;;;;;28.85;7.97;;;9.60;65.50;;;;;;4998163;28;20060;-65
2021/03/13 03:57:22;;;;;;;27.88;8.63;;;9.60;65.30;;;;;;5003871;28;20858;-66
2021/03/13 03:59:48;;;;;;;27.98;7.95;;;9.70;65.30;;;;;;5001075;28;20034;-66
2021/03/13 04:02:15;;;;;;;28.15;7.57;;;9.70;65.30;;;;;;4999744;28;20040;-66
2021/03/13 04:04:44;;;;;;;28.92;8.20;;;9.70;65.10;;;;;;5001746;28;20203;-66
2021/03/13 04:07:10;;;;;;;19.95;7.20;;;9.80;65.10;;;;;;5005584;28;20057;-65
2021/03/13 04:09:38;;;;;;;28.02;7.25;;;9.80;65.00;;;;;;5003711;28;20033;-66
2021/03/13 04:12:07;;;;;;;25.33;7.72;;;9.80;65.00;;;;;;5013795;28;20398;-66
2021/03/13 04:14:33;;;;;;;27.38;7.25;;;9.80;65.10;;;;;;4992670;28;20091;-66
2021/03/13 04:16:59;;;;;;;30.55;7.63;;;9.90;65.10;;;;;;4998953;28;20033;-66
2021/03/13 04:19:26;;;;;;;21.98;6.85;;;9.90;65.00;;;;;;4999177;28;20037;-65
2021/03/13 04:21:54;;;;;;;22.65;6.50;;;9.90;64.90;;;;;;4998654;28;20030;-65
2021/03/13 04:24:23;;;;;;;29.17;6.97;;;9.90;64.90;;;;;;5003772;28;20042;-65
2021/03/13 04:26:49;;;;;;;17.77;5.97;;;10.00;64.90;;;;;;4997429;28;20069;-66
2021/03/13 04:29:14;;;;;;;19.40;6.70;;;10.00;64.80;;;;;;4999012;28;20489;-65
2021/03/13 04:31:41;;;;;;;22.05;6.20;;;10.00;64.80;;;;;;4994363;28;20049;-65
2021/03/13 04:34:10;;;;;;;21.58;6.75;;;10.00;64.80;;;;;;5000765;28;20160;-65
2021/03/13 04:36:36;;;;;;;18.10;5.43;;;10.10;64.80;;;;;;4997279;28;20068;-66
2021/03/13 04:39:04;;;;;;;21.73;5.68;;;10.10;64.80;;;;;;5002040;28;20037;-64
2021/03/13 04:41:34;;;;;;;17.52;5.80;;;10.10;64.70;;;;;;5002214;28;20045;-65
2021/03/13 04:44:03;;;;;;;26.52;5.90;;;10.10;64.60;;;;;;4997838;28;20520;-66
2021/03/13 04:46:33;;;;;;;21.48;5.53;;;10.20;64.60;;;;;;5001914;28;20517;-66
2021/03/13 04:49:01;;;;;;;17.88;5.45;;;10.20;64.50;;;;;;5005519;28;20033;-65
2021/03/13 04:51:27;;;;;;;16.15;5.20;;;10.20;64.40;;;;;;4998962;28;20041;-65
2021/03/13 04:53:52;;;;;;;19.88;5.80;;;10.20;64.30;;;;;;5004239;28;20068;-65
2021/03/13 04:56:18;;;;;;;20.23;5.93;;;10.30;64.30;;;;;;5001869;28;20037;-65
2021/03/13 04:58:43;;;;;;;14.18;6.15;;;10.30;64.30;;;;;;5003635;28;20137;-65
2021/03/13 05:01:09;;;;;;;19.00;5.22;;;10.30;64.30;;;;;;5002468;28;20041;-66
2021/03/13 05:03:34;;;;;;;18.13;6.25;;;10.30;64.20;;;;;;4995314;28;20033;-66
2021/03/13 05:06:00;;;;;;;25.17;6.50;;;10.30;64.20;;;;;;4997378;28;20461;-65
2021/03/13 05:08:25;;;;;;;19.50;6.47;;;10.30;64.20;;;;;;5000430;28;20041;-65
2021/03/13 05:10:51;;;;;;;29.73;6.63;;;10.30;64.20;;;;;;5004908;28;20406;-66
2021/03/13 05:13:16;;;;;;;19.48;5.75;;;10.30;64.20;;;;;;5001516;28;20048;-65
2021/03/13 05:15:44;;;;;;;14.05;5.72;;;10.30;64.20;;;;;;5003823;28;20044;-65
2021/03/13 05:18:12;;;;;;;17.73;6.55;;;10.30;64.20;;;;;;4996968;28;20102;-65
2021/03/13 05:20:38;;;;;;;15.82;6.05;;;10.30;64.20;;;;;;5004109;28;20030;-65
2021/03/13 05:23:03;;;;;;;13.50;5.50;;;10.30;64.40;;;;;;5003777;28;20068;-65
2021/03/13 05:25:29;;;;;;;11.60;5.07;;;10.30;64.30;;;;;;5001241;28;20065;-65
2021/03/13 05:27:56;;;;;;;12.98;5.75;;;10.30;64.30;;;;;;5003600;28;20585;-66
2021/03/13 05:30:22;;;;;;;15.23;5.90;;;10.30;64.30;;;;;;5000357;28;20519;-65
2021/03/13 05:32:48;;;;;;;20.40;6.38;;;10.30;64.40;;;;;;5001831;28;20037;-65
2021/03/13 05:35:14;;;;;;;16.92;5.60;;;10.30;64.30;;;;;;4997314;28;20030;-66
2021/03/13 05:37:42;;;;;;;11.95;5.60;;;10.30;64.40;;;;;;5002104;28;20052;-65
2021/03/13 05:40:10;;;;;;;13.70;5.65;;;10.30;64.30;;;;;;4999927;28;20128;-66
2021/03/13 05:42:36;;;;;;;10.55;6.18;;;10.20;64.20;;;;;;5003561;28;20029;-66
2021/03/13 05:45:08;;;;;;;15.25;6.30;;;10.30;64.40;;;;;;4997213;28;20041;-66
2021/03/13 05:47:38;;;;;;;15.70;6.35;;;10.20;64.40;;;;;;4999772;28;20433;-66
2021/03/13 05:50:08;;;;;;;19.27;8.07;;;10.20;64.40;;;;;;5003746;28;20048;-66
2021/03/13 05:52:35;;;;;;;13.13;8.30;;;10.30;64.40;;;;;;4996791;28;20037;-66
2021/03/13 05:55:02;;;;;;;22.73;9.38;;;10.30;64.40;;;;;;5001109;28;20799;-66
2021/03/13 05:57:28;;;;;;;18.98;10.23;;;10.20;64.40;;;;;;4996709;28;22323;-66
2021/03/13 05:59:56;;;;;;;19.63;11.20;;;10.20;64.40;;;;;;4993201;28;22113;-65
2021/03/13 06:02:22;;;;;;;24.05;10.88;;;10.20;64.40;;;;;;4995780;28;20752;-66
2021/03/13 06:04:50;;;;;;;18.80;10.65;;;10.20;64.50;;;;;;4994436;28;20079;-65
2021/03/13 06:07:25;;;;;;;19.95;12.48;;;10.20;64.50;;;;;;5000028;28;20037;-66
2021/03/13 06:09:52;;;;;;;20.77;12.25;;;10.20;64.60;;;;;;5001188;28;20048;-66
2021/03/13 06:12:21;;;;;;;24.55;14.02;;;10.20;64.50;;;;;;4996767;28;20038;-66
2021/03/13 06:14:52;;;;;;;23.63;13.43;;;10.20;64.60;;;;;;4998336;28;20041;-66
2021/03/13 06:17:18;;;;;;;26.15;13.10;;;10.20;65.50;;;;;;5000591;28;21161;-66
2021/03/13 06:19:49;;;;;;;26.27;14.30;;;10.20;64.80;;;;;;4998600;28;20045;-65
2021/03/13 06:22:34;;;;;;;25.52;13.23;;;;;;;;;;4999047;28;20033;-65
2021/03/13 06:25:18;;;;;;;20.60;11.77;;;;;;;;;;5003574;28;20037;-66
2021/03/13 06:27:59;;;;;;;19.85;11.43;;;10.20;64.70;;;;;;4996940;28;20036;-66
2021/03/13 06:30:31;;;;;;;17.65;10.52;;;10.20;64.90;;;;;;5001265;28;20030;-66
2021/03/13 06:32:57;;;;;;;18.15;11.00;;;10.20;64.90;;;;;;5015462;28;20060;-65
2021/03/13 06:35:24;;;;;;;18.65;10.73;;;10.20;64.90;;;;;;5006610;28;20045;-65
2021/03/13 06:37:54;;;;;;;16.75;9.75;;;10.20;65.00;;;;;;5021893;28;20076;-66
2021/03/13 06:40:49;;;;;;;15.82;9.45;;;10.20;64.90;;;;;;5000720;28;20069;-65
2021/03/13 06:43:30;;;;;;;17.52;8.90;;;10.20;64.90;;;;;;5010044;28;20034;-65
2021/03/13 06:45:57;;;;;;;14.05;9.25;;;10.20;65.00;;;;;;5011107;28;20045;-65
2021/03/13 06:48:43;;;;;;;16.52;9.93;;;10.20;65.00;;;;;;5018980;28;20049;-66
2021/03/13 06:51:22;;;;;;;15.60;9.63;;;10.20;65.00;;;;;;5008164;28;20085;-65
2021/03/13 06:54:00;;;;;;;13.90;8.88;;;10.20;65.10;;;;;;5006209;28;20073;-66
2021/03/13 06:56:28;;;;;;;12.13;8.07;;;10.20;65.00;;;;;;5004548;28;20064;-66
2021/03/13 06:58:54;;;;;;;13.90;8.05;;;10.20;65.00;;;;;;5011602;28;20052;-66
2021/03/13 07:01:26;;;;;;;13.65;8.48;;;10.30;65.10;;;;;;5005824;28;20960;-65
2021/03/13 07:03:54;;;;;;;16.42;8.95;;;10.30;65.20;;;;;;5006903;28;20042;-65
2021/03/13 07:06:21;;;;;;;14.23;7.88;;;10.30;65.10;;;;;;5003131;28;20045;-67
2021/03/13 07:08:49;;;;;;;13.80;7.97;;;10.30;65.10;;;;;;5006264;28;20026;-66
2021/03/13 07:11:24;;;;;;;14.70;7.53;;;10.30;65.20;;;;;;4998929;28;20034;-66
2021/03/13 07:13:54;;;;;;;12.45;7.60;;;10.30;65.10;;;;;;5001880;28;20049;-66
2021/03/13 07:16:35;;;;;;;10.85;7.60;;;10.30;65.20;;;;;;5001652;28;20046;-66
2021/03/13 07:19:03;;;;;;;12.63;7.55;;;10.30;65.30;;;;;;5005026;28;21443;-66
2021/03/13 07:21:30;;;;;;;12.55;7.57;;;10.30;65.30;;;;;;5006569;28;20040;-66
2021/03/13 07:23:58;;;;;;;10.93;7.40;;;10.40;65.40;;;;;;4998834;28;21716;-66
2021/03/13 07:26:28;;;;;;;10.65;7.47;;;10.40;65.40;;;;;;4998119;28;21453;-66
2021/03/13 07:28:57;;;;;;;10.50;7.40;;;10.40;65.40;;;;;;5006502;28;20152;-66
2021/03/13 07:31:28;;;;;;;9.25;6.45;;;10.50;65.40;;;;;;4998727;28;20572;-66
2021/03/13 07:33:55;;;;;;;12.45;7.38;;;;;;;;;;4999357;28;20204;-65
2021/03/13 07:36:24;;;;;;;11.45;7.25;;;;;;;;;;4996580;28;20551;-66
2021/03/13 07:38:51;;;;;;;12.43;7.38;;;;;;;;;;4989997;28;20586;-68
2021/03/13 07:41:17;;;;;;;13.23;7.60;;;;;;;;;;5003190;28;20173;-66
2021/03/13 07:43:44;;;;;;;13.60;7.22;;;;;;;;;;5012667;28;20095;-66
2021/03/13 07:46:13;;;;;;;10.93;6.93;;;;;;;;;;5010203;28;20042;-65
2021/03/13 07:48:39;;;;;;;10.40;7.20;;;10.50;65.50;;;;;;5007297;28;20049;-65
2021/03/13 07:51:06;;;;;;;9.85;6.80;;;;;;;;;;5008916;28;20080;-65
2021/03/13 07:53:37;;;;;;;9.60;7.18;;;;;;;;;;5009141;28;20135;-65
2021/03/13 07:56:07;;;;;;;13.02;7.40;;;10.60;65.50;;;;;;5004419;28;20474;-66
2021/03/13 07:58:32;;;;;;;10.90;7.00;;;10.70;65.60;;;;;;5013927;28;20053;-66
2021/03/13 08:01:00;;;;;;;12.05;7.55;;;10.70;65.60;;;;;;5009958;28;20037;-65
2021/03/13 08:03:37;;;;;;;13.60;7.43;;;10.70;65.60;;;;;;5012312;28;20516;-66
2021/03/13 08:06:05;;;;;;;9.25;6.13;;;10.70;65.60;;;;;;5002829;28;20416;-66
2021/03/13 08:08:50;;;;;;;9.80;6.28;;;10.80;65.60;;;;;;5003941;28;20049;-65
2021/03/13 08:11:17;;;;;;;9.90;6.45;;;10.80;65.70;;;;;;5012509;28;20076;-66
2021/03/13 08:13:47;;;;;;;10.13;6.68;;;10.80;65.70;;;;;;5009128;28;20165;-66
2021/03/13 08:16:14;;;;;;;8.88;6.07;;;;;;;;;;4996575;28;20034;-65
2021/03/13 08:18:46;;;;;;;8.57;5.28;;;10.90;65.80;;;;;;5002640;28;20088;-63
2021/03/13 08:21:18;;;;;;;7.82;5.43;;;10.90;65.80;;;;;;5001056;28;20524;-66
2021/03/13 08:23:47;;;;;;;8.98;3.78;;;11.00;65.80;;;;;;5002001;28;20036;-66
2021/03/13 08:26:13;;;;;;;6.93;3.45;;;11.00;65.60;;;;;;5010104;28;20041;-66
2021/03/13 08:28:45;;;;;;;8.65;3.15;;;11.10;65.50;;;;;;5009736;28;20099;-65
2021/03/13 08:31:23;;;;;;;5.57;2.50;;;;;;;;;;4998806;28;20224;-66
2021/03/13 08:33:54;;;;;;;3.08;2.08;;;11.10;64.50;;;;;;5009944;28;20025;-66
2021/03/13 08:36:23;;;;;;;5.30;1.95;;;11.20;65.00;;;;;;5004344;28;20055;-66
2021/03/13 08:38:58;;;;;;;4.80;1.60;;;11.30;65.00;;;;;;5008156;28;20041;-66
2021/03/13 08:41:42;;;;;;;8.38;1.42;;;11.30;64.60;;;;;;5005039;28;20046;-65
2021/03/13 08:44:11;;;;;;;5.22;2.00;;;;;;;;;;5003765;28;20029;-66
2021/03/13 08:46:45;;;;;;;3.25;1.65;;;;;;;;;;5008044;28;20046;-66
2021/03/13 08:49:37;;;;;;;7.15;1.67;;;;;;;;;;5007265;28;20401;-66
2021/03/13 08:52:06;;;;;;;12.57;1.67;;;;;;;;;;5009260;28;20377;-65
2021/03/13 08:54:40;;;;;;;5.82;1.85;;;;;;;;;;5010157;28;20037;-65
2021/03/13 08:57:27;;;;;;;9.50;2.10;;;11.30;64.70;;;;;;5010465;28;20042;-65
2021/03/13 08:59:55;;;;;;;6.90;1.60;;;11.70;64.90;;;;;;4991221;28;20136;-65
2021/03/13 09:02:25;;;;;;;3.85;1.50;;;11.90;64.10;;;;;;4985131;28;21094;-66
2021/03/13 09:04:55;;;;;;;6.20;1.30;;;12.10;64.00;;;;;;4986438;28;20030;-65
2021/03/13 09:07:22;;;;;;;6.65;1.42;;;12.30;63.40;;;;;;4988312;28;20448;-65
2021/03/13 09:09:48;;;;;;;4.30;1.50;;;12.50;62.60;;;;;;4988454;28;20038;-66
2021/03/13 09:12:17;;;;;;;10.27;1.75;;;12.50;61.90;;;;;;4994394;28;20029;-65
2021/03/13 09:14:47;;;;;;;10.98;2.00;;;12.50;61.30;;;;;;5007136;28;20033;-66
2021/03/13 09:17:24;;;;;;;8.38;1.80;;;12.80;65.50;;;;;;5008375;28;20112;-66
2021/03/13 09:19:52;;;;;;;4.25;1.27;;;14.40;66.20;;;;;;5010276;28;20584;-66
2021/03/13 09:22:20;;;;;;;3.78;1.25;;;16.00;61.00;;;;;;5007505;28;20072;-67
2021/03/13 09:24:52;;;;;;;8.00;1.70;;;17.60;57.80;;;;;;5015969;28;20033;-67
2021/03/13 09:27:23;;;;;;;6.60;1.75;;;18.50;53.60;;;;;;5006370;28;20052;-67
2021/03/13 09:29:53;;;;;;;4.53;1.35;;;18.50;51.20;;;;;;5001464;28;20738;-67
2021/03/13 09:32:19;;;;;;;7.18;1.67;;;17.80;50.50;;;;;;5002461;28;20038;-67
2021/03/13 09:34:49;;;;;;;7.30;1.85;;;17.00;50.70;;;;;;5008978;28;20516;-66
2021/03/13 09:37:22;;;;;;;7.70;1.75;;;16.20;51.10;;;;;;4999845;28;20056;-67
2021/03/13 09:39:50;;;;;;;12.15;1.90;;;15.50;51.50;;;;;;5005726;28;20421;-67
2021/03/13 09:42:21;;;;;;;8.20;1.88;;;14.90;52.10;;;;;;5008040;28;20044;-67
2021/03/13 09:45:11;;;;;;;8.85;1.63;;;14.50;53.00;;;;;;5010239;28;20538;-66
2021/03/13 09:47:58;;;;;;;11.15;1.83;;;14.20;53.40;;;;;;4999105;28;20037;-68
2021/03/13 09:50:32;;;;;;;15.57;1.58;;;14.00;56.80;;;;;;5006124;28;20033;-67
2021/03/13 09:53:00;;;;;;;7.60;1.75;;;14.60;55.20;;;;;;5001097;28;20220;-67
2021/03/13 09:55:28;;;;;;;10.65;2.08;;;14.70;54.60;;;;;;5009060;28;20038;-67
2021/03/13 09:57:55;;;;;;;11.23;2.17;;;;;;;;;;5001928;28;20686;-67
2021/03/13 10:00:22;;;;;;;14.05;2.45;;;;;;;;;;4990015;28;20052;-66
2021/03/13 10:02:49;;;;;;;13.00;2.25;;;15.10;55.20;;;;;;5003271;28;20116;-67
2021/03/13 10:05:17;;;;;;;6.05;1.75;;;17.30;51.50;;;;;;5007789;28;20112;-66
2021/03/13 10:07:46;;;;;;;7.93;2.25;;;18.40;49.60;;;;;;5014502;28;20039;-67
2021/03/13 10:10:19;;;;;;;7.03;1.35;;;19.70;47.00;;;;;;5004805;28;20051;-67
2021/03/13 10:12:47;;;;;;;7.05;1.40;;;20.90;44.30;;;;;;5006841;28;20037;-67
2021/03/13 10:15:29;;;;;;;7.22;1.52;;;21.90;42.10;;;;;;4995316;28;20497;-67
2021/03/13 10:17:55;;;;;;;12.30;1.90;;;22.30;39.60;;;;;;5003585;28;20064;-68
2021/03/13 10:20:22;;;;;;;9.88;1.98;;;21.70;38.20;;;;;;5010482;28;20500;-67
2021/03/13 10:22:48;;;;;;;8.48;1.98;;;20.90;38.50;;;;;;4998271;28;20041;-65
2021/03/13 10:25:15;;;;;;;12.48;2.08;;;19.90;38.50;;;;;;5006839;28;20041;-64
2021/03/13 10:27:40;;;;;;;8.05;1.63;;;18.90;39.90;;;;;;5009135;28;20030;-65
2021/03/13 10:30:09;;;;;;;11.23;2.17;;;18.20;41.60;;;;;;5004761;28;20068;-65
2021/03/13 10:32:36;;;;;;;7.43;1.73;;;17.80;43.20;;;;;;5008601;28;20038;-66
2021/03/13 10:35:08;;;;;;;10.23;2.00;;;18.10;43.70;;;;;;5000351;28;20033;-65
2021/03/13 10:37:40;;;;;;;20.83;2.35;;;18.40;42.30;;;;;;5008974;28;20038;-65
2021/03/13 10:40:07;;;;;;;9.95;1.98;;;18.20;41.50;;;;;;5010349;28;20111;-65
2021/03/13 10:42:35;;;;;;;13.02;2.15;;;17.60;42.10;;;;;;5003929;28;20041;-65
2021/03/13 10:45:20;;;;;;;5.20;1.20;;;17.00;43.00;;;;;;5008117;28;20055;-65
2021/03/13 10:47:46;;;;;;;4.97;1.50;;;16.70;44.00;;;;;;5004686;28;20457;-65
2021/03/13 10:50:25;;;;;;;7.93;1.80;;;17.20;45.50;;;;;;5006903;28;20128;-65
2021/03/13 10:52:50;;;;;;;8.15;1.60;;;18.60;45.20;;;;;;5000058;28;20373;-65
2021/03/13 10:55:16;;;;;;;11.30;1.80;;;19.90;42.50;;;;;;4997568;28;20937;-65
2021/03/13 10:58:02;;;;;;;10.65;2.00;;;20.60;41.20;;;;;;4998943;28;20037;-66
2021/03/13 11:00:28;;;;;;;8.90;1.48;;;21.10;39.60;;;;;;4998718;28;22245;-66
2021/03/13 11:02:53;;;;;;;7.90;1.95;;;21.40;38.80;;;;;;5000065;28;20037;-65
2021/03/13 11:05:19;;;;;;;9.98;2.80;;;21.40;39.20;;;;;;4992993;28;20045;-66
2021/03/13 11:07:44;;;;;;;9.10;1.95;;;22.10;38.00;;;;;;4993254;28;20031;-66
2021/03/13 11:10:10;;;;;;;9.88;2.40;;;22.50;36.50;;;;;;4999048;28;20048;-66
2021/03/13 11:12:36;;;;;;;7.88;2.05;;;23.10;36.40;;;;;;5000278;28;20343;-66
2021/03/13 11:15:03;;;;;;;11.95;2.67;;;23.50;34.50;;;;;;4998890;28;20029;-65
2021/03/13 11:17:31;;;;;;;9.35;1.88;;;23.80;34.60;;;;;;4996712;28;20091;-66
2021/03/13 11:19:56;;;;;;;11.10;2.20;;;23.90;33.70;;;;;;4995046;28;20185;-67
2021/03/13 11:22:22;;;;;;;6.13;1.73;;;23.20;33.40;;;;;;4987321;28;20129;-66
2021/03/13 11:24:50;;;;;;;9.13;2.00;;;22.60;34.70;;;;;;4998837;28;20421;-67
2021/03/13 11:27:15;;;;;;;9.65;2.10;;;22.50;34.10;;;;;;4997482;28;20102;-65
2021/03/13 11:29:43;;;;;;;7.20;1.75;;;22.00;33.80;;;;;;5000984;28;20745;-65
2021/03/13 11:32:09;;;;;;;10.85;2.33;;;21.00;34.60;;;;;;4999277;28;20296;-64
2021/03/13 11:34:37;;;;;;;13.23;2.22;;;20.00;36.10;;;;;;5007418;28;20061;-64
2021/03/13 11:37:05;;;;;;;13.68;2.05;;;19.00;37.60;;;;;;5002202;28;20037;-64
2021/03/13 11:39:31;;;;;;;11.80;1.92;;;18.20;39.30;;;;;;4999701;28;20052;-65
2021/03/13 11:41:59;;;;;;;10.65;2.53;;;18.20;40.00;;;;;;5002224;28;20065;-64
2021/03/13 11:44:24;;;;;;;9.40;1.90;;;18.20;39.80;;;;;;5003575;28;20469;-64
2021/03/13 11:46:50;;;;;;;12.05;1.98;;;17.90;40.30;;;;;;5001162;28;20158;-63
2021/03/13 11:49:15;;;;;;;7.07;1.58;;;17.50;40.90;;;;;;4998323;28;20505;-64
2021/03/13 11:51:41;;;;;;;10.00;1.65;;;17.00;41.60;;;;;;5001106;28;20030;-64
2021/03/13 11:54:08;;;;;;;10.85;1.55;;;16.50;42.20;;;;;;4997308;28;20191;-65
2021/03/13 11:56:34;;;;;;;14.57;1.30;;;16.00;42.60;;;;;;4996565;28;20048;-64
2021/03/13 11:59:00;;;;;;;7.30;1.67;;;15.50;43.30;;;;;;4997654;28;20082;-66
2021/03/13 12:01:28;;;;;;;12.73;2.05;;;15.20;43.70;;;;;;4995794;28;25021;-64
2021/03/13 12:03:56;;;;;;;8.05;1.60;;;14.90;44.60;;;;;;4997065;28;20065;-64
2021/03/13 12:06:21;;;;;;;12.07;2.10;;;14.70;44.80;;;;;;4994960;28;20048;-65
2021/03/13 12:08:47;;;;;;;13.73;2.15;;;14.50;45.20;;;;;;4999270;28;20042;-65
2021/03/13 12:11:12;;;;;;;8.48;2.13;;;14.40;45.60;;;;;;4997103;28;20393;-66
2021/03/13 12:13:40;;;;;;;9.35;1.88;;;14.30;45.80;;;;;;4998593;28;20050;-64
2021/03/13 12:16:06;;;;;;;11.20;1.95;;;14.30;45.90;;;;;;4986081;28;20064;-64
2021/03/13 12:18:33;;;;;;;8.82;1.98;;;14.20;46.00;;;;;;4992925;28;20045;-64
2021/03/13 12:20:58;;;;;;;8.70;1.70;;;14.20;46.50;;;;;;5002303;28;20497;-64
2021/03/13 12:23:27;;;;;;;10.50;1.85;;;14.10;46.40;;;;;;4993738;28;20041;-64
2021/03/13 12:25:52;;;;;;;10.38;2.10;;;14.00;46.80;;;;;;4999223;28;20044;-65
2021/03/13 12:28:18;;;;;;;8.50;1.52;;;13.80;47.00;;;;;;5005400;28;20488;-64
2021/03/13 12:30:43;;;;;;;6.85;1.67;;;13.60;47.50;;;;;;5013300;28;20030;-64
2021/03/13 12:33:11;;;;;;;6.47;1.45;;;13.40;48.20;;;;;;5015482;28;20476;-65
2021/03/13 12:35:38;;;;;;;8.88;1.52;;;13.20;49.20;;;;;;5001737;28;20173;-65
2021/03/13 12:38:04;;;;;;;8.70;1.30;;;13.10;50.00;;;;;;5012019;28;20044;-66
2021/03/13 12:40:29;;;;;;;9.57;1.58;;;13.00;50.10;;;;;;5006405;28;20041;-68
2021/03/13 12:42:55;;;;;;;9.27;1.60;;;13.00;50.80;;;;;;5007871;28;20034;-65
2021/03/13 12:45:20;;;;;;;15.52;2.15;;;13.20;52.20;;;;;;5003421;28;20089;-66
2021/03/13 12:47:48;;;;;;;3.80;1.00;;;13.60;52.80;;;;;;5001474;28;20029;-65
2021/03/13 12:50:13;;;;;;;5.65;1.10;;;13.90;51.30;;;;;;5003897;28;20574;-65
2021/03/13 12:52:39;;;;;;;6.93;1.08;;;14.10;51.80;;;;;;5003205;28;20034;-66
2021/03/13 12:55:05;;;;;;;7.28;1.25;;;14.30;50.70;;;;;;5014846;28;20041;-65
2021/03/13 12:57:31;;;;;;;7.20;1.08;;;14.30;50.30;;;;;;5019357;28;20042;-65